Orange City, Iowa
Current Conditions -  °F | °C
As of 12:15 PM on Sunday 25 Jan 2015 (Local Time) from KORC Reporting Station
Overcast Overcast  
Wind Chill: 31°   Ceiling: 800
Heat Index: 36°   Visibility: 10mi
Dew Point: 30°   Wind: 6mph
Humidity: 81%   Direction: 10°N
Pressure: 30"   Gusts: NA
Location:  43.01°N, 96.06°W
Report Text: KORC 251815Z AUTO 01005KT 10SM BKN008 OVC033 02/M01 A3000 RMK AO2
Loading
Personal Weather Stations






























Interactive Weather Map New forecast layout! Learn more

10-Day Weather Forecast

Advertisements
Track Severe Weather on mobile